sensor_id;sensor_type;location;lat;lon;timestamp;P1;durP1;ratioP1;P2;durP2;ratioP2
13483;SDS011;6814;57.786;12.080;2023-09-07T00:01:25;31.27;;;20.00;;
13483;SDS011;6814;57.786;12.080;2023-09-07T00:03:52;26.57;;;19.23;;
13483;SDS011;6814;57.786;12.080;2023-09-07T00:06:18;25.20;;;19.00;;
13483;SDS011;6814;57.786;12.080;2023-09-07T00:08:46;26.27;;;18.67;;
13483;SDS011;6814;57.786;12.080;2023-09-07T00:11:12;25.80;;;20.33;;
13483;SDS011;6814;57.786;12.080;2023-09-07T00:13:39;29.83;;;20.37;;
13483;SDS011;6814;57.786;12.080;2023-09-07T00:16:05;25.00;;;19.57;;
13483;SDS011;6814;57.786;12.080;2023-09-07T00:18:32;25.47;;;18.50;;
13483;SDS011;6814;57.786;12.080;2023-09-07T00:20:59;23.43;;;19.67;;
13483;SDS011;6814;57.786;12.080;2023-09-07T00:23:25;26.37;;;19.03;;
13483;SDS011;6814;57.786;12.080;2023-09-07T00:25:53;23.33;;;19.17;;
13483;SDS011;6814;57.786;12.080;2023-09-07T00:28:20;26.50;;;18.93;;
13483;SDS011;6814;57.786;12.080;2023-09-07T00:30:46;21.70;;;19.40;;
13483;SDS011;6814;57.786;12.080;2023-09-07T00:33:12;25.33;;;19.00;;
13483;SDS011;6814;57.786;12.080;2023-09-07T00:35:39;25.20;;;18.67;;
13483;SDS011;6814;57.786;12.080;2023-09-07T00:38:05;28.43;;;20.00;;
13483;SDS011;6814;57.786;12.080;2023-09-07T00:40:31;34.23;;;19.67;;
13483;SDS011;6814;57.786;12.080;2023-09-07T00:42:59;27.50;;;19.83;;
13483;SDS011;6814;57.786;12.080;2023-09-07T00:45:26;26.67;;;20.17;;
13483;SDS011;6814;57.786;12.080;2023-09-07T00:47:52;30.60;;;19.60;;
13483;SDS011;6814;57.786;12.080;2023-09-07T00:50:19;28.07;;;19.17;;
13483;SDS011;6814;57.786;12.080;2023-09-07T00:52:46;30.23;;;19.10;;
13483;SDS011;6814;57.786;12.080;2023-09-07T00:55:13;32.20;;;19.83;;
13483;SDS011;6814;57.786;12.080;2023-09-07T00:57:39;25.57;;;19.03;;
13483;SDS011;6814;57.786;12.080;2023-09-07T01:00:10;27.30;;;18.53;;
13483;SDS011;6814;57.786;12.080;2023-09-07T01:02:37;31.13;;;20.63;;
13483;SDS011;6814;57.786;12.080;2023-09-07T01:05:03;28.07;;;19.60;;
13483;SDS011;6814;57.786;12.080;2023-09-07T01:07:31;28.30;;;18.80;;
13483;SDS011;6814;57.786;12.080;2023-09-07T01:09:59;24.70;;;18.73;;
13483;SDS011;6814;57.786;12.080;2023-09-07T01:12:27;31.40;;;20.50;;
13483;SDS011;6814;57.786;12.080;2023-09-07T01:14:54;26.40;;;19.07;;
13483;SDS011;6814;57.786;12.080;2023-09-07T01:17:22;29.23;;;19.57;;
13483;SDS011;6814;57.786;12.080;2023-09-07T01:19:48;30.43;;;19.93;;
13483;SDS011;6814;57.786;12.080;2023-09-07T01:22:17;27.53;;;18.43;;
13483;SDS011;6814;57.786;12.080;2023-09-07T01:24:45;24.27;;;18.17;;
13483;SDS011;6814;57.786;12.080;2023-09-07T01:27:12;26.53;;;18.67;;
13483;SDS011;6814;57.786;12.080;2023-09-07T01:29:38;25.33;;;19.80;;
13483;SDS011;6814;57.786;12.080;2023-09-07T01:32:05;26.87;;;18.90;;
13483;SDS011;6814;57.786;12.080;2023-09-07T01:34:32;23.53;;;17.97;;
13483;SDS011;6814;57.786;12.080;2023-09-07T01:36:58;29.03;;;20.07;;
13483;SDS011;6814;57.786;12.080;2023-09-07T01:39:26;31.43;;;20.20;;
13483;SDS011;6814;57.786;12.080;2023-09-07T01:41:52;29.67;;;20.03;;
13483;SDS011;6814;57.786;12.080;2023-09-07T01:44:19;25.13;;;19.93;;
13483;SDS011;6814;57.786;12.080;2023-09-07T01:46:45;30.90;;;20.40;;
13483;SDS011;6814;57.786;12.080;2023-09-07T01:49:12;33.57;;;21.70;;
13483;SDS011;6814;57.786;12.080;2023-09-07T01:51:38;35.57;;;23.40;;
13483;SDS011;6814;57.786;12.080;2023-09-07T01:54:05;35.77;;;23.67;;
13483;SDS011;6814;57.786;12.080;2023-09-07T01:56:33;40.40;;;24.57;;
13483;SDS011;6814;57.786;12.080;2023-09-07T01:58:59;37.03;;;24.23;;
13483;SDS011;6814;57.786;12.080;2023-09-07T02:01:26;36.93;;;23.73;;
13483;SDS011;6814;57.786;12.080;2023-09-07T02:03:51;38.63;;;25.63;;
13483;SDS011;6814;57.786;12.080;2023-09-07T02:06:18;44.77;;;25.90;;
13483;SDS011;6814;57.786;12.080;2023-09-07T02:08:44;43.47;;;26.17;;
13483;SDS011;6814;57.786;12.080;2023-09-07T02:11:11;43.20;;;25.63;;
13483;SDS011;6814;57.786;12.080;2023-09-07T02:13:41;44.13;;;25.53;;
13483;SDS011;6814;57.786;12.080;2023-09-07T02:16:07;47.23;;;25.80;;
13483;SDS011;6814;57.786;12.080;2023-09-07T02:18:33;42.27;;;24.47;;
13483;SDS011;6814;57.786;12.080;2023-09-07T02:21:03;41.40;;;23.90;;
13483;SDS011;6814;57.786;12.080;2023-09-07T02:23:30;45.77;;;25.50;;
13483;SDS011;6814;57.786;12.080;2023-09-07T02:25:56;38.73;;;25.07;;
13483;SDS011;6814;57.786;12.080;2023-09-07T02:28:23;41.13;;;23.80;;
13483;SDS011;6814;57.786;12.080;2023-09-07T02:30:51;44.97;;;24.60;;
13483;SDS011;6814;57.786;12.080;2023-09-07T02:33:17;45.83;;;25.60;;
13483;SDS011;6814;57.786;12.080;2023-09-07T02:35:43;49.10;;;24.70;;
13483;SDS011;6814;57.786;12.080;2023-09-07T02:38:10;44.17;;;24.53;;
13483;SDS011;6814;57.786;12.080;2023-09-07T02:40:39;39.97;;;23.33;;
13483;SDS011;6814;57.786;12.080;2023-09-07T02:43:06;43.23;;;22.93;;
13483;SDS011;6814;57.786;12.080;2023-09-07T02:45:32;48.27;;;23.93;;
13483;SDS011;6814;57.786;12.080;2023-09-07T02:48:00;43.93;;;22.87;;
13483;SDS011;6814;57.786;12.080;2023-09-07T02:50:27;49.53;;;24.33;;
13483;SDS011;6814;57.786;12.080;2023-09-07T02:52:54;44.17;;;24.67;;
13483;SDS011;6814;57.786;12.080;2023-09-07T02:55:20;40.87;;;23.17;;
13483;SDS011;6814;57.786;12.080;2023-09-07T02:57:47;42.23;;;22.93;;
13483;SDS011;6814;57.786;12.080;2023-09-07T03:00:13;43.83;;;24.13;;
13483;SDS011;6814;57.786;12.080;2023-09-07T03:02:42;42.80;;;23.17;;
13483;SDS011;6814;57.786;12.080;2023-09-07T03:05:10;43.27;;;22.57;;
13483;SDS011;6814;57.786;12.080;2023-09-07T03:07:36;38.00;;;22.47;;
13483;SDS011;6814;57.786;12.080;2023-09-07T03:10:04;37.07;;;21.70;;
13483;SDS011;6814;57.786;12.080;2023-09-07T03:12:31;34.63;;;21.20;;
13483;SDS011;6814;57.786;12.080;2023-09-07T03:14:57;31.83;;;19.63;;
13483;SDS011;6814;57.786;12.080;2023-09-07T03:17:24;33.67;;;20.23;;
13483;SDS011;6814;57.786;12.080;2023-09-07T03:19:50;33.63;;;20.10;;
13483;SDS011;6814;57.786;12.080;2023-09-07T03:22:18;29.53;;;19.07;;
13483;SDS011;6814;57.786;12.080;2023-09-07T03:24:45;31.43;;;19.10;;
13483;SDS011;6814;57.786;12.080;2023-09-07T03:27:11;34.10;;;19.00;;
13483;SDS011;6814;57.786;12.080;2023-09-07T03:29:37;30.53;;;19.10;;
13483;SDS011;6814;57.786;12.080;2023-09-07T03:32:04;29.07;;;19.03;;
13483;SDS011;6814;57.786;12.080;2023-09-07T03:34:31;29.10;;;19.70;;
13483;SDS011;6814;57.786;12.080;2023-09-07T03:36:57;31.50;;;20.30;;
13483;SDS011;6814;57.786;12.080;2023-09-07T03:39:25;31.17;;;20.33;;
13483;SDS011;6814;57.786;12.080;2023-09-07T03:41:51;31.70;;;19.00;;
13483;SDS011;6814;57.786;12.080;2023-09-07T03:44:18;26.10;;;17.77;;
13483;SDS011;6814;57.786;12.080;2023-09-07T03:46:44;31.90;;;18.57;;
13483;SDS011;6814;57.786;12.080;2023-09-07T03:49:11;29.87;;;18.90;;
13483;SDS011;6814;57.786;12.080;2023-09-07T03:51:37;27.77;;;18.53;;
13483;SDS011;6814;57.786;12.080;2023-09-07T03:54:03;25.03;;;18.40;;
13483;SDS011;6814;57.786;12.080;2023-09-07T03:56:31;23.33;;;17.37;;
13483;SDS011;6814;57.786;12.080;2023-09-07T03:58:58;21.53;;;16.00;;
13483;SDS011;6814;57.786;12.080;2023-09-07T04:01:24;24.30;;;17.60;;
13483;SDS011;6814;57.786;12.080;2023-09-07T04:03:51;24.87;;;15.40;;
13483;SDS011;6814;57.786;12.080;2023-09-07T04:06:17;20.87;;;15.30;;
13483;SDS011;6814;57.786;12.080;2023-09-07T04:08:44;23.43;;;17.00;;
13483;SDS011;6814;57.786;12.080;2023-09-07T04:11:11;23.23;;;16.30;;
13483;SDS011;6814;57.786;12.080;2023-09-07T04:13:38;20.23;;;15.63;;
13483;SDS011;6814;57.786;12.080;2023-09-07T04:16:05;22.17;;;16.07;;
13483;SDS011;6814;57.786;12.080;2023-09-07T04:18:31;21.93;;;15.50;;
13483;SDS011;6814;57.786;12.080;2023-09-07T04:21:04;24.47;;;16.33;;
13483;SDS011;6814;57.786;12.080;2023-09-07T04:23:30;20.03;;;14.70;;
13483;SDS011;6814;57.786;12.080;2023-09-07T04:26:03;21.70;;;16.23;;
13483;SDS011;6814;57.786;12.080;2023-09-07T04:28:29;22.37;;;16.13;;
13483;SDS011;6814;57.786;12.080;2023-09-07T04:30:57;21.47;;;14.97;;
13483;SDS011;6814;57.786;12.080;2023-09-07T04:33:23;21.20;;;16.07;;
13483;SDS011;6814;57.786;12.080;2023-09-07T04:35:50;18.83;;;15.27;;
13483;SDS011;6814;57.786;12.080;2023-09-07T04:38:16;20.60;;;15.33;;
13483;SDS011;6814;57.786;12.080;2023-09-07T04:40:43;18.83;;;15.00;;
13483;SDS011;6814;57.786;12.080;2023-09-07T04:43:09;24.80;;;15.30;;
13483;SDS011;6814;57.786;12.080;2023-09-07T04:45:35;19.27;;;14.93;;
13483;SDS011;6814;57.786;12.080;2023-09-07T04:48:04;22.50;;;15.13;;
13483;SDS011;6814;57.786;12.080;2023-09-07T04:50:30;20.10;;;14.17;;
13483;SDS011;6814;57.786;12.080;2023-09-07T04:52:56;19.93;;;13.60;;
13483;SDS011;6814;57.786;12.080;2023-09-07T04:55:23;16.03;;;13.60;;
13483;SDS011;6814;57.786;12.080;2023-09-07T04:57:49;19.57;;;13.37;;
13483;SDS011;6814;57.786;12.080;2023-09-07T05:00:16;14.17;;;12.30;;
13483;SDS011;6814;57.786;12.080;2023-09-07T05:02:43;17.20;;;12.40;;
13483;SDS011;6814;57.786;12.080;2023-09-07T05:05:12;18.03;;;12.47;;
13483;SDS011;6814;57.786;12.080;2023-09-07T05:07:39;18.37;;;11.33;;
13483;SDS011;6814;57.786;12.080;2023-09-07T05:10:05;13.10;;;10.70;;
13483;SDS011;6814;57.786;12.080;2023-09-07T05:12:33;13.33;;;11.50;;
13483;SDS011;6814;57.786;12.080;2023-09-07T05:14:59;13.93;;;11.07;;
13483;SDS011;6814;57.786;12.080;2023-09-07T05:17:26;17.37;;;11.30;;
13483;SDS011;6814;57.786;12.080;2023-09-07T05:20:03;15.27;;;10.97;;
13483;SDS011;6814;57.786;12.080;2023-09-07T05:22:31;11.83;;;10.60;;
13483;SDS011;6814;57.786;12.080;2023-09-07T05:25:01;12.77;;;10.57;;
13483;SDS011;6814;57.786;12.080;2023-09-07T05:27:28;17.00;;;10.83;;
13483;SDS011;6814;57.786;12.080;2023-09-07T05:29:54;12.10;;;10.40;;
13483;SDS011;6814;57.786;12.080;2023-09-07T05:32:21;13.63;;;10.57;;
13483;SDS011;6814;57.786;12.080;2023-09-07T05:34:47;14.17;;;10.57;;
13483;SDS011;6814;57.786;12.080;2023-09-07T05:37:13;11.47;;;9.50;;
13483;SDS011;6814;57.786;12.080;2023-09-07T05:39:41;11.13;;;9.67;;
13483;SDS011;6814;57.786;12.080;2023-09-07T05:42:07;11.43;;;9.87;;
13483;SDS011;6814;57.786;12.080;2023-09-07T05:44:34;10.97;;;9.33;;
13483;SDS011;6814;57.786;12.080;2023-09-07T05:47:01;10.40;;;9.10;;
13483;SDS011;6814;57.786;12.080;2023-09-07T05:49:27;11.07;;;8.90;;
13483;SDS011;6814;57.786;12.080;2023-09-07T05:51:54;10.97;;;8.80;;
13483;SDS011;6814;57.786;12.080;2023-09-07T05:54:20;12.67;;;9.37;;
13483;SDS011;6814;57.786;12.080;2023-09-07T05:56:48;9.23;;;7.37;;
13483;SDS011;6814;57.786;12.080;2023-09-07T05:59:14;8.63;;;7.03;;
13483;SDS011;6814;57.786;12.080;2023-09-07T06:01:41;10.90;;;7.10;;
13483;SDS011;6814;57.786;12.080;2023-09-07T06:04:07;9.37;;;6.97;;
13483;SDS011;6814;57.786;12.080;2023-09-07T06:06:34;8.27;;;6.27;;
13483;SDS011;6814;57.786;12.080;2023-09-07T06:09:00;6.70;;;6.10;;
13483;SDS011;6814;57.786;12.080;2023-09-07T06:11:28;7.57;;;6.23;;
13483;SDS011;6814;57.786;12.080;2023-09-07T06:13:56;7.57;;;5.93;;
13483;SDS011;6814;57.786;12.080;2023-09-07T06:16:23;6.50;;;5.80;;
13483;SDS011;6814;57.786;12.080;2023-09-07T06:18:49;7.00;;;6.30;;
13483;SDS011;6814;57.786;12.080;2023-09-07T06:21:16;7.03;;;5.73;;
13483;SDS011;6814;57.786;12.080;2023-09-07T06:23:43;7.13;;;6.43;;
13483;SDS011;6814;57.786;12.080;2023-09-07T06:26:09;8.60;;;6.17;;
13483;SDS011;6814;57.786;12.080;2023-09-07T06:28:36;6.90;;;6.03;;
13483;SDS011;6814;57.786;12.080;2023-09-07T06:31:04;9.93;;;6.43;;
13483;SDS011;6814;57.786;12.080;2023-09-07T06:33:30;7.60;;;5.83;;
13483;SDS011;6814;57.786;12.080;2023-09-07T06:35:56;9.03;;;5.70;;
13483;SDS011;6814;57.786;12.080;2023-09-07T06:38:26;7.27;;;6.10;;
13483;SDS011;6814;57.786;12.080;2023-09-07T06:40:52;7.13;;;5.57;;
13483;SDS011;6814;57.786;12.080;2023-09-07T06:43:19;8.20;;;6.10;;
13483;SDS011;6814;57.786;12.080;2023-09-07T06:45:46;8.30;;;5.70;;
13483;SDS011;6814;57.786;12.080;2023-09-07T06:48:13;9.27;;;6.03;;
13483;SDS011;6814;57.786;12.080;2023-09-07T06:50:40;8.70;;;5.60;;
13483;SDS011;6814;57.786;12.080;2023-09-07T06:53:06;6.87;;;5.00;;
13483;SDS011;6814;57.786;12.080;2023-09-07T06:55:33;6.60;;;5.60;;
13483;SDS011;6814;57.786;12.080;2023-09-07T06:57:59;7.20;;;5.37;;
13483;SDS011;6814;57.786;12.080;2023-09-07T07:00:26;6.10;;;5.50;;
13483;SDS011;6814;57.786;12.080;2023-09-07T07:02:52;6.20;;;5.63;;
13483;SDS011;6814;57.786;12.080;2023-09-07T07:05:20;6.20;;;5.60;;
13483;SDS011;6814;57.786;12.080;2023-09-07T07:07:48;6.03;;;5.43;;
13483;SDS011;6814;57.786;12.080;2023-09-07T07:10:15;5.67;;;4.90;;
13483;SDS011;6814;57.786;12.080;2023-09-07T07:12:41;6.57;;;5.23;;
13483;SDS011;6814;57.786;12.080;2023-09-07T07:15:08;5.37;;;4.97;;
13483;SDS011;6814;57.786;12.080;2023-09-07T07:17:35;6.30;;;4.80;;
13483;SDS011;6814;57.786;12.080;2023-09-07T07:20:01;6.57;;;5.23;;
13483;SDS011;6814;57.786;12.080;2023-09-07T07:22:29;7.53;;;5.07;;
13483;SDS011;6814;57.786;12.080;2023-09-07T07:25:00;8.43;;;5.67;;
13483;SDS011;6814;57.786;12.080;2023-09-07T07:27:30;6.43;;;4.80;;
13483;SDS011;6814;57.786;12.080;2023-09-07T07:29:57;8.03;;;4.80;;
13483;SDS011;6814;57.786;12.080;2023-09-07T07:32:23;7.90;;;5.20;;
13483;SDS011;6814;57.786;12.080;2023-09-07T07:34:49;4.90;;;4.50;;
13483;SDS011;6814;57.786;12.080;2023-09-07T07:37:16;6.87;;;4.73;;
13483;SDS011;6814;57.786;12.080;2023-09-07T07:39:44;5.80;;;4.90;;
13483;SDS011;6814;57.786;12.080;2023-09-07T07:42:10;5.83;;;4.77;;
13483;SDS011;6814;57.786;12.080;2023-09-07T07:44:37;5.70;;;5.10;;
13483;SDS011;6814;57.786;12.080;2023-09-07T07:47:03;5.63;;;5.10;;
13483;SDS011;6814;57.786;12.080;2023-09-07T07:49:30;5.77;;;5.27;;
13483;SDS011;6814;57.786;12.080;2023-09-07T07:51:57;7.57;;;5.37;;
13483;SDS011;6814;57.786;12.080;2023-09-07T07:54:24;7.60;;;5.33;;
13483;SDS011;6814;57.786;12.080;2023-09-07T07:56:52;6.20;;;5.00;;
13483;SDS011;6814;57.786;12.080;2023-09-07T07:59:18;7.53;;;5.23;;
13483;SDS011;6814;57.786;12.080;2023-09-07T08:01:45;7.03;;;4.60;;
13483;SDS011;6814;57.786;12.080;2023-09-07T08:04:11;5.63;;;4.50;;
13483;SDS011;6814;57.786;12.080;2023-09-07T08:06:38;5.00;;;4.50;;
13483;SDS011;6814;57.786;12.080;2023-09-07T08:09:04;6.07;;;3.93;;
13483;SDS011;6814;57.786;12.080;2023-09-07T08:11:31;4.17;;;3.77;;
13483;SDS011;6814;57.786;12.080;2023-09-07T08:13:59;4.17;;;3.73;;
13483;SDS011;6814;57.786;12.080;2023-09-07T08:16:26;6.07;;;3.80;;
13483;SDS011;6814;57.786;12.080;2023-09-07T08:18:53;4.07;;;3.77;;
13483;SDS011;6814;57.786;12.080;2023-09-07T08:21:19;3.73;;;3.43;;
13483;SDS011;6814;57.786;12.080;2023-09-07T08:23:46;4.97;;;4.40;;
13483;SDS011;6814;57.786;12.080;2023-09-07T08:26:13;4.40;;;3.70;;
13483;SDS011;6814;57.786;12.080;2023-09-07T08:28:40;3.93;;;3.60;;
13483;SDS011;6814;57.786;12.080;2023-09-07T08:31:12;3.90;;;3.50;;
13483;SDS011;6814;57.786;12.080;2023-09-07T08:33:46;4.30;;;3.70;;
13483;SDS011;6814;57.786;12.080;2023-09-07T08:36:15;4.30;;;3.77;;
13483;SDS011;6814;57.786;12.080;2023-09-07T08:38:42;3.57;;;3.20;;
13483;SDS011;6814;57.786;12.080;2023-09-07T08:41:09;5.80;;;3.43;;
13483;SDS011;6814;57.786;12.080;2023-09-07T08:43:44;3.80;;;3.40;;
13483;SDS011;6814;57.786;12.080;2023-09-07T08:46:15;3.87;;;3.60;;
13483;SDS011;6814;57.786;12.080;2023-09-07T08:48:42;3.43;;;3.13;;
13483;SDS011;6814;57.786;12.080;2023-09-07T08:51:09;4.17;;;3.30;;
13483;SDS011;6814;57.786;12.080;2023-09-07T08:53:37;3.83;;;3.50;;
13483;SDS011;6814;57.786;12.080;2023-09-07T08:56:03;4.17;;;3.40;;
13483;SDS011;6814;57.786;12.080;2023-09-07T08:58:30;5.30;;;4.23;;
13483;SDS011;6814;57.786;12.080;2023-09-07T09:00:57;4.03;;;3.63;;
13483;SDS011;6814;57.786;12.080;2023-09-07T09:03:24;6.70;;;3.87;;
13483;SDS011;6814;57.786;12.080;2023-09-07T09:05:52;4.77;;;3.50;;
13483;SDS011;6814;57.786;12.080;2023-09-07T09:08:19;5.53;;;3.43;;
13483;SDS011;6814;57.786;12.080;2023-09-07T09:10:49;4.17;;;3.30;;
13483;SDS011;6814;57.786;12.080;2023-09-07T09:13:16;3.50;;;3.17;;
13483;SDS011;6814;57.786;12.080;2023-09-07T09:15:42;4.07;;;3.43;;
13483;SDS011;6814;57.786;12.080;2023-09-07T09:18:09;5.23;;;3.33;;
13483;SDS011;6814;57.786;12.080;2023-09-07T09:20:44;3.20;;;2.90;;
13483;SDS011;6814;57.786;12.080;2023-09-07T09:23:10;6.07;;;3.20;;
13483;SDS011;6814;57.786;12.080;2023-09-07T09:25:39;3.97;;;3.20;;
13483;SDS011;6814;57.786;12.080;2023-09-07T09:28:08;3.30;;;3.07;;
13483;SDS011;6814;57.786;12.080;2023-09-07T09:30:34;4.00;;;3.27;;
13483;SDS011;6814;57.786;12.080;2023-09-07T09:33:01;3.33;;;3.03;;
13483;SDS011;6814;57.786;12.080;2023-09-07T09:35:28;3.43;;;3.10;;
13483;SDS011;6814;57.786;12.080;2023-09-07T09:37:56;3.73;;;3.17;;
13483;SDS011;6814;57.786;12.080;2023-09-07T09:40:29;3.30;;;3.00;;
13483;SDS011;6814;57.786;12.080;2023-09-07T09:42:56;6.83;;;4.00;;
13483;SDS011;6814;57.786;12.080;2023-09-07T09:45:24;3.80;;;3.20;;
13483;SDS011;6814;57.786;12.080;2023-09-07T09:47:54;4.43;;;3.23;;
13483;SDS011;6814;57.786;12.080;2023-09-07T09:50:22;3.73;;;2.97;;
13483;SDS011;6814;57.786;12.080;2023-09-07T09:52:48;5.17;;;3.80;;
13483;SDS011;6814;57.786;12.080;2023-09-07T09:55:16;5.20;;;3.27;;
13483;SDS011;6814;57.786;12.080;2023-09-07T09:57:43;3.57;;;3.03;;
13483;SDS011;6814;57.786;12.080;2023-09-07T10:00:10;3.33;;;3.03;;
13483;SDS011;6814;57.786;12.080;2023-09-07T10:02:59;3.20;;;2.90;;
13483;SDS011;6814;57.786;12.080;2023-09-07T10:05:27;3.17;;;2.87;;
13483;SDS011;6814;57.786;12.080;2023-09-07T10:07:59;3.03;;;2.60;;
13483;SDS011;6814;57.786;12.080;2023-09-07T10:10:31;3.07;;;2.63;;
13483;SDS011;6814;57.786;12.080;2023-09-07T10:12:58;2.97;;;2.60;;
13483;SDS011;6814;57.786;12.080;2023-09-07T10:15:24;3.40;;;2.70;;
13483;SDS011;6814;57.786;12.080;2023-09-07T10:18:01;2.60;;;2.40;;
13483;SDS011;6814;57.786;12.080;2023-09-07T10:20:28;4.03;;;2.90;;
13483;SDS011;6814;57.786;12.080;2023-09-07T10:23:01;2.80;;;2.60;;
13483;SDS011;6814;57.786;12.080;2023-09-07T10:25:30;3.90;;;2.77;;
13483;SDS011;6814;57.786;12.080;2023-09-07T10:27:56;3.63;;;3.07;;
13483;SDS011;6814;57.786;12.080;2023-09-07T10:30:25;2.57;;;2.37;;
13483;SDS011;6814;57.786;12.080;2023-09-07T10:32:51;4.70;;;3.00;;
13483;SDS011;6814;57.786;12.080;2023-09-07T10:35:18;4.13;;;2.80;;
13483;SDS011;6814;57.786;12.080;2023-09-07T10:37:46;3.23;;;2.57;;
13483;SDS011;6814;57.786;12.080;2023-09-07T10:40:18;2.60;;;2.40;;
13483;SDS011;6814;57.786;12.080;2023-09-07T10:42:46;3.00;;;2.80;;
13483;SDS011;6814;57.786;12.080;2023-09-07T10:45:13;3.43;;;3.10;;
13483;SDS011;6814;57.786;12.080;2023-09-07T10:47:41;3.47;;;2.60;;
13483;SDS011;6814;57.786;12.080;2023-09-07T10:50:09;2.77;;;2.50;;
13483;SDS011;6814;57.786;12.080;2023-09-07T10:52:35;4.77;;;2.93;;
13483;SDS011;6814;57.786;12.080;2023-09-07T10:55:02;2.47;;;2.27;;
13483;SDS011;6814;57.786;12.080;2023-09-07T10:57:29;4.20;;;2.87;;
13483;SDS011;6814;57.786;12.080;2023-09-07T10:59:56;2.93;;;2.50;;
13483;SDS011;6814;57.786;12.080;2023-09-07T11:02:23;3.40;;;2.70;;
13483;SDS011;6814;57.786;12.080;2023-09-07T11:04:49;3.83;;;2.77;;
13483;SDS011;6814;57.786;12.080;2023-09-07T11:07:16;2.57;;;2.40;;
13483;SDS011;6814;57.786;12.080;2023-09-07T11:09:42;4.10;;;2.57;;
13483;SDS011;6814;57.786;12.080;2023-09-07T11:12:11;3.87;;;2.47;;
13483;SDS011;6814;57.786;12.080;2023-09-07T11:14:38;3.83;;;2.90;;
13483;SDS011;6814;57.786;12.080;2023-09-07T11:17:06;3.33;;;2.70;;
13483;SDS011;6814;57.786;12.080;2023-09-07T11:19:32;4.87;;;2.90;;
13483;SDS011;6814;57.786;12.080;2023-09-07T11:21:59;4.00;;;2.50;;
13483;SDS011;6814;57.786;12.080;2023-09-07T11:24:26;4.23;;;2.57;;
13483;SDS011;6814;57.786;12.080;2023-09-07T11:26:52;3.50;;;2.83;;
13483;SDS011;6814;57.786;12.080;2023-09-07T11:29:18;3.00;;;2.77;;
13483;SDS011;6814;57.786;12.080;2023-09-07T11:31:45;2.70;;;2.50;;
13483;SDS011;6814;57.786;12.080;2023-09-07T11:37:05;3.27;;;2.87;;
13483;SDS011;6814;57.786;12.080;2023-09-07T11:39:31;3.17;;;2.70;;
13483;SDS011;6814;57.786;12.080;2023-09-07T11:41:57;5.40;;;2.80;;
13483;SDS011;6814;57.786;12.080;2023-09-07T11:44:24;3.13;;;2.60;;
13483;SDS011;6814;57.786;12.080;2023-09-07T11:46:50;2.80;;;2.60;;
13483;SDS011;6814;57.786;12.080;2023-09-07T11:49:17;2.90;;;2.60;;
13483;SDS011;6814;57.786;12.080;2023-09-07T11:51:46;4.73;;;2.87;;
13483;SDS011;6814;57.786;12.080;2023-09-07T11:54:14;2.73;;;2.10;;
13483;SDS011;6814;57.786;12.080;2023-09-07T11:56:40;4.03;;;2.80;;
13483;SDS011;6814;57.786;12.080;2023-09-07T11:59:08;3.10;;;2.50;;
13483;SDS011;6814;57.786;12.080;2023-09-07T12:01:34;3.00;;;2.63;;
13483;SDS011;6814;57.786;12.080;2023-09-07T12:04:01;2.73;;;2.37;;
13483;SDS011;6814;57.786;12.080;2023-09-07T12:06:29;5.10;;;2.50;;
13483;SDS011;6814;57.786;12.080;2023-09-07T12:08:58;2.10;;;1.97;;
13483;SDS011;6814;57.786;12.080;2023-09-07T12:11:26;2.67;;;2.20;;
13483;SDS011;6814;57.786;12.080;2023-09-07T12:13:53;4.30;;;2.53;;
13483;SDS011;6814;57.786;12.080;2023-09-07T12:16:19;2.70;;;2.20;;
13483;SDS011;6814;57.786;12.080;2023-09-07T12:18:45;4.57;;;2.03;;
13483;SDS011;6814;57.786;12.080;2023-09-07T12:21:12;2.73;;;2.13;;
13483;SDS011;6814;57.786;12.080;2023-09-07T12:23:38;3.17;;;2.33;;
13483;SDS011;6814;57.786;12.080;2023-09-07T12:26:05;3.47;;;2.00;;
13483;SDS011;6814;57.786;12.080;2023-09-07T12:28:32;2.20;;;2.10;;
13483;SDS011;6814;57.786;12.080;2023-09-07T12:30:59;2.20;;;2.10;;
13483;SDS011;6814;57.786;12.080;2023-09-07T12:33:25;2.40;;;2.20;;
13483;SDS011;6814;57.786;12.080;2023-09-07T12:35:54;2.57;;;2.47;;
13483;SDS011;6814;57.786;12.080;2023-09-07T12:38:20;2.53;;;2.33;;
13483;SDS011;6814;57.786;12.080;2023-09-07T12:40:52;2.30;;;2.10;;
13483;SDS011;6814;57.786;12.080;2023-09-07T12:43:18;2.53;;;2.20;;
13483;SDS011;6814;57.786;12.080;2023-09-07T12:45:46;6.40;;;2.20;;
13483;SDS011;6814;57.786;12.080;2023-09-07T12:48:13;3.90;;;2.30;;
13483;SDS011;6814;57.786;12.080;2023-09-07T12:50:39;2.77;;;1.97;;
13483;SDS011;6814;57.786;12.080;2023-09-07T12:53:06;2.30;;;2.17;;
13483;SDS011;6814;57.786;12.080;2023-09-07T12:55:32;2.30;;;2.10;;
13483;SDS011;6814;57.786;12.080;2023-09-07T12:57:59;3.03;;;2.20;;
13483;SDS011;6814;57.786;12.080;2023-09-07T13:00:27;3.13;;;2.10;;
13483;SDS011;6814;57.786;12.080;2023-09-07T13:02:55;2.00;;;1.90;;
13483;SDS011;6814;57.786;12.080;2023-09-07T13:05:22;2.13;;;1.93;;
13483;SDS011;6814;57.786;12.080;2023-09-07T13:07:48;2.07;;;1.87;;
13483;SDS011;6814;57.786;12.080;2023-09-07T13:10:14;2.43;;;2.10;;
13483;SDS011;6814;57.786;12.080;2023-09-07T13:12:41;2.10;;;2.00;;
13483;SDS011;6814;57.786;12.080;2023-09-07T13:15:08;2.47;;;2.10;;
13483;SDS011;6814;57.786;12.080;2023-09-07T13:17:34;1.80;;;1.70;;
13483;SDS011;6814;57.786;12.080;2023-09-07T13:20:02;2.77;;;2.20;;
13483;SDS011;6814;57.786;12.080;2023-09-07T13:22:28;3.20;;;2.10;;
13483;SDS011;6814;57.786;12.080;2023-09-07T13:24:55;2.33;;;1.90;;
13483;SDS011;6814;57.786;12.080;2023-09-07T13:27:22;2.17;;;1.97;;
13483;SDS011;6814;57.786;12.080;2023-09-07T13:29:50;2.90;;;2.07;;
13483;SDS011;6814;57.786;12.080;2023-09-07T13:32:17;2.17;;;1.97;;
13483;SDS011;6814;57.786;12.080;2023-09-07T13:34:43;2.45;;;2.10;;
13483;SDS011;6814;57.786;12.080;2023-09-07T13:37:11;2.80;;;2.05;;
13483;SDS011;6814;57.786;12.080;2023-09-07T13:39:37;2.53;;;2.30;;
13483;SDS011;6814;57.786;12.080;2023-09-07T13:42:04;3.08;;;2.30;;
13483;SDS011;6814;57.786;12.080;2023-09-07T13:44:30;2.53;;;2.30;;
13483;SDS011;6814;57.786;12.080;2023-09-07T13:46:57;2.47;;;2.13;;
13483;SDS011;6814;57.786;12.080;2023-09-07T13:49:23;2.55;;;2.35;;
13483;SDS011;6814;57.786;12.080;2023-09-07T13:51:50;2.38;;;2.17;;
13483;SDS011;6814;57.786;12.080;2023-09-07T13:54:18;2.40;;;2.20;;
13483;SDS011;6814;57.786;12.080;2023-09-07T13:56:44;2.60;;;1.95;;
13483;SDS011;6814;57.786;12.080;2023-09-07T13:59:11;2.28;;;2.10;;
13483;SDS011;6814;57.786;12.080;2023-09-07T14:01:38;3.92;;;2.00;;
13483;SDS011;6814;57.786;12.080;2023-09-07T14:04:05;2.60;;;2.40;;
13483;SDS011;6814;57.786;12.080;2023-09-07T14:06:31;2.42;;;1.88;;
13483;SDS011;6814;57.786;12.080;2023-09-07T14:08:58;2.58;;;2.17;;
13483;SDS011;6814;57.786;12.080;2023-09-07T14:11:25;2.00;;;1.90;;
13483;SDS011;6814;57.786;12.080;2023-09-07T14:13:52;3.28;;;1.83;;
13483;SDS011;6814;57.786;12.080;2023-09-07T14:16:19;2.35;;;2.08;;
13483;SDS011;6814;57.786;12.080;2023-09-07T14:18:46;2.20;;;2.00;;
13483;SDS011;6814;57.786;12.080;2023-09-07T14:21:13;3.15;;;2.10;;
13483;SDS011;6814;57.786;12.080;2023-09-07T14:23:39;3.45;;;2.20;;
13483;SDS011;6814;57.786;12.080;2023-09-07T14:26:07;2.45;;;2.20;;
13483;SDS011;6814;57.786;12.080;2023-09-07T14:28:35;2.38;;;2.17;;
13483;SDS011;6814;57.786;12.080;2023-09-07T14:31:03;2.15;;;2.05;;
13483;SDS011;6814;57.786;12.080;2023-09-07T14:33:31;2.00;;;1.90;;
13483;SDS011;6814;57.786;12.080;2023-09-07T14:35:58;2.30;;;2.00;;
13483;SDS011;6814;57.786;12.080;2023-09-07T14:38:24;2.40;;;2.20;;
13483;SDS011;6814;57.786;12.080;2023-09-07T14:40:52;2.25;;;2.15;;